sensor_id;sensor_type;location;lat;lon;timestamp;pressure;altitude;pressure_sealevel;temperature;humidity
45621;BME280;31345;51.522;10.702;2022-08-06T00:02:12;99807.56;;;13.45;94.35
45621;BME280;31345;51.522;10.702;2022-08-06T00:04:40;99809.81;;;12.96;95.53
45621;BME280;31345;51.522;10.702;2022-08-06T00:07:07;99810.50;;;13.00;97.92
45621;BME280;31345;51.522;10.702;2022-08-06T00:09:35;99817.44;;;12.86;95.72
45621;BME280;31345;51.522;10.702;2022-08-06T00:12:05;99821.41;;;12.79;97.04
45621;BME280;31345;51.522;10.702;2022-08-06T00:14:33;99817.97;;;12.64;98.45
45621;BME280;31345;51.522;10.702;2022-08-06T00:17:01;99831.84;;;12.66;98.20
45621;BME280;31345;51.522;10.702;2022-08-06T00:19:28;99828.03;;;12.84;98.27
45621;BME280;31345;51.522;10.702;2022-08-06T00:21:56;99834.88;;;12.87;97.96
45621;BME280;31345;51.522;10.702;2022-08-06T00:24:24;99827.19;;;12.42;99.12
45621;BME280;31345;51.522;10.702;2022-08-06T00:26:51;99828.03;;;12.28;100.00
45621;BME280;31345;51.522;10.702;2022-08-06T00:29:21;99829.25;;;12.93;99.74
45621;BME280;31345;51.522;10.702;2022-08-06T00:31:49;99831.72;;;12.82;97.89
45621;BME280;31345;51.522;10.702;2022-08-06T00:34:16;99820.75;;;12.75;98.13
45621;BME280;31345;51.522;10.702;2022-08-06T00:36:44;99833.38;;;12.83;99.38
45621;BME280;31345;51.522;10.702;2022-08-06T00:39:11;99827.50;;;12.65;97.82
45621;BME280;31345;51.522;10.702;2022-08-06T00:41:39;99829.78;;;12.56;97.78
45621;BME280;31345;51.522;10.702;2022-08-06T00:44:07;99837.47;;;12.59;98.79
45621;BME280;31345;51.522;10.702;2022-08-06T00:46:35;99857.44;;;12.33;99.57
45621;BME280;31345;51.522;10.702;2022-08-06T00:49:03;99852.38;;;12.15;99.99
45621;BME280;31345;51.522;10.702;2022-08-06T00:51:31;99854.41;;;12.10;99.21
45621;BME280;31345;51.522;10.702;2022-08-06T00:54:01;99845.25;;;12.46;99.23
45621;BME280;31345;51.522;10.702;2022-08-06T00:56:28;99845.16;;;12.63;98.35
45621;BME280;31345;51.522;10.702;2022-08-06T00:58:56;99851.53;;;12.44;100.00
45621;BME280;31345;51.522;10.702;2022-08-06T01:01:23;99841.13;;;12.71;95.98
45621;BME280;31345;51.522;10.702;2022-08-06T01:03:52;99836.56;;;12.46;98.48
45621;BME280;31345;51.522;10.702;2022-08-06T01:06:20;99839.75;;;12.22;97.66
45621;BME280;31345;51.522;10.702;2022-08-06T01:08:48;99844.88;;;12.09;99.24
45621;BME280;31345;51.522;10.702;2022-08-06T01:11:16;99843.50;;;12.18;100.00
45621;BME280;31345;51.522;10.702;2022-08-06T01:13:43;99852.19;;;12.04;99.80
45621;BME280;31345;51.522;10.702;2022-08-06T01:16:17;99866.06;;;11.90;100.00
45621;BME280;31345;51.522;10.702;2022-08-06T01:18:53;99866.13;;;11.74;100.00
45621;BME280;31345;51.522;10.702;2022-08-06T01:21:42;99861.84;;;11.56;100.00
45621;BME280;31345;51.522;10.702;2022-08-06T01:24:25;99861.25;;;11.67;100.00
45621;BME280;31345;51.522;10.702;2022-08-06T01:27:16;99859.59;;;11.81;100.00
45621;BME280;31345;51.522;10.702;2022-08-06T01:29:50;99863.38;;;11.91;100.00
45621;BME280;31345;51.522;10.702;2022-08-06T01:32:23;99857.91;;;11.80;100.00
45621;BME280;31345;51.522;10.702;2022-08-06T01:34:55;99859.81;;;11.62;100.00
45621;BME280;31345;51.522;10.702;2022-08-06T01:37:30;99865.34;;;11.41;100.00
45621;BME280;31345;51.522;10.702;2022-08-06T01:40:02;99862.28;;;11.95;100.00
45621;BME280;31345;51.522;10.702;2022-08-06T01:42:33;99861.59;;;11.61;100.00
45621;BME280;31345;51.522;10.702;2022-08-06T01:45:04;99871.34;;;11.74;100.00
45621;BME280;31345;51.522;10.702;2022-08-06T01:47:33;99867.53;;;11.95;100.00
45621;BME280;31345;51.522;10.702;2022-08-06T01:50:06;99871.09;;;12.24;97.90
45621;BME280;31345;51.522;10.702;2022-08-06T01:52:39;99872.13;;;12.06;99.50
45621;BME280;31345;51.522;10.702;2022-08-06T01:55:10;99876.34;;;11.93;98.98
45621;BME280;31345;51.522;10.702;2022-08-06T01:57:51;99873.16;;;11.88;100.00
45621;BME280;31345;51.522;10.702;2022-08-06T02:00:20;99880.53;;;12.12;99.18
45621;BME280;31345;51.522;10.702;2022-08-06T02:02:48;99879.16;;;11.90;99.79
45621;BME280;31345;51.522;10.702;2022-08-06T02:05:19;99883.19;;;11.65;99.15
45621;BME280;31345;51.522;10.702;2022-08-06T02:07:52;99888.09;;;12.02;100.00
45621;BME280;31345;51.522;10.702;2022-08-06T02:10:22;99896.34;;;11.79;99.99
45621;BME280;31345;51.522;10.702;2022-08-06T02:12:51;99895.41;;;11.50;99.94
45621;BME280;31345;51.522;10.702;2022-08-06T02:15:23;99901.66;;;11.63;100.00
45621;BME280;31345;51.522;10.702;2022-08-06T02:17:57;99906.88;;;11.63;100.00
45621;BME280;31345;51.522;10.702;2022-08-06T02:20:28;99894.81;;;11.91;99.61
45621;BME280;31345;51.522;10.702;2022-08-06T02:23:00;99905.63;;;11.54;100.00
45621;BME280;31345;51.522;10.702;2022-08-06T02:25:30;99907.38;;;11.70;99.43
45621;BME280;31345;51.522;10.702;2022-08-06T02:28:01;99911.66;;;11.40;100.00
45621;BME280;31345;51.522;10.702;2022-08-06T02:30:33;99908.25;;;11.54;100.00
45621;BME280;31345;51.522;10.702;2022-08-06T02:33:05;99912.78;;;11.51;100.00
45621;BME280;31345;51.522;10.702;2022-08-06T02:35:35;99908.09;;;11.41;100.00
45621;BME280;31345;51.522;10.702;2022-08-06T02:38:09;99916.69;;;11.60;100.00
45621;BME280;31345;51.522;10.702;2022-08-06T02:40:43;99914.00;;;11.29;100.00
45621;BME280;31345;51.522;10.702;2022-08-06T02:43:16;99914.31;;;11.55;100.00
45621;BME280;31345;51.522;10.702;2022-08-06T02:45:48;99912.75;;;11.36;100.00
45621;BME280;31345;51.522;10.702;2022-08-06T02:48:25;99911.72;;;11.86;99.62
45621;BME280;31345;51.522;10.702;2022-08-06T02:50:55;99910.72;;;11.25;100.00
45621;BME280;31345;51.522;10.702;2022-08-06T02:53:33;99921.81;;;11.61;100.00
45621;BME280;31345;51.522;10.702;2022-08-06T02:56:07;99916.75;;;11.74;98.85
45621;BME280;31345;51.522;10.702;2022-08-06T02:58:39;99920.56;;;11.68;100.00
45621;BME280;31345;51.522;10.702;2022-08-06T03:01:12;99918.50;;;11.74;99.34
45621;BME280;31345;51.522;10.702;2022-08-06T03:03:42;99915.69;;;11.30;100.00
45621;BME280;31345;51.522;10.702;2022-08-06T03:06:12;99918.28;;;11.62;99.50
45621;BME280;31345;51.522;10.702;2022-08-06T03:08:42;99921.63;;;11.01;100.00
45621;BME280;31345;51.522;10.702;2022-08-06T03:11:11;99928.19;;;10.92;100.00
45621;BME280;31345;51.522;10.702;2022-08-06T03:13:41;99922.09;;;11.24;100.00
45621;BME280;31345;51.522;10.702;2022-08-06T03:16:10;99925.66;;;11.23;100.00
45621;BME280;31345;51.522;10.702;2022-08-06T03:18:42;99928.84;;;11.61;99.99
45621;BME280;31345;51.522;10.702;2022-08-06T03:21:11;99932.94;;;11.18;100.00
45621;BME280;31345;51.522;10.702;2022-08-06T03:23:40;99937.66;;;11.11;100.00
45621;BME280;31345;51.522;10.702;2022-08-06T03:26:08;99929.19;;;11.06;100.00
45621;BME280;31345;51.522;10.702;2022-08-06T03:28:42;99940.84;;;10.84;100.00
45621;BME280;31345;51.522;10.702;2022-08-06T03:31:10;99945.38;;;10.81;100.00
45621;BME280;31345;51.522;10.702;2022-08-06T03:33:41;99940.78;;;11.34;100.00
45621;BME280;31345;51.522;10.702;2022-08-06T03:36:09;99948.09;;;10.95;100.00
45621;BME280;31345;51.522;10.702;2022-08-06T03:38:45;99951.41;;;10.65;100.00
45621;BME280;31345;51.522;10.702;2022-08-06T03:41:14;99951.03;;;10.89;100.00
45621;BME280;31345;51.522;10.702;2022-08-06T03:43:45;99961.41;;;10.74;100.00
45621;BME280;31345;51.522;10.702;2022-08-06T03:46:16;99968.16;;;10.78;100.00
45621;BME280;31345;51.522;10.702;2022-08-06T03:48:46;99969.53;;;10.52;100.00
45621;BME280;31345;51.522;10.702;2022-08-06T03:51:17;99972.47;;;10.79;100.00
45621;BME280;31345;51.522;10.702;2022-08-06T03:53:47;99979.00;;;10.71;100.00
45621;BME280;31345;51.522;10.702;2022-08-06T03:56:20;99978.69;;;10.77;100.00
45621;BME280;31345;51.522;10.702;2022-08-06T03:58:52;99989.34;;;10.38;100.00
45621;BME280;31345;51.522;10.702;2022-08-06T04:01:23;99991.53;;;10.48;100.00
45621;BME280;31345;51.522;10.702;2022-08-06T04:03:54;99980.81;;;10.70;100.00
45621;BME280;31345;51.522;10.702;2022-08-06T04:06:23;99989.38;;;10.90;100.00
45621;BME280;31345;51.522;10.702;2022-08-06T04:08:52;99994.56;;;10.74;100.00
45621;BME280;31345;51.522;10.702;2022-08-06T04:11:20;99999.34;;;10.30;100.00
45621;BME280;31345;51.522;10.702;2022-08-06T04:13:50;100004.13;;;10.57;100.00
45621;BME280;31345;51.522;10.702;2022-08-06T04:16:19;100003.56;;;10.68;100.00
45621;BME280;31345;51.522;10.702;2022-08-06T04:18:48;100005.41;;;10.66;100.00
45621;BME280;31345;51.522;10.702;2022-08-06T04:21:19;100014.81;;;10.17;100.00
45621;BME280;31345;51.522;10.702;2022-08-06T04:23:47;100013.19;;;10.14;100.00
45621;BME280;31345;51.522;10.702;2022-08-06T04:26:18;100010.09;;;10.77;100.00
45621;BME280;31345;51.522;10.702;2022-08-06T04:28:48;100014.28;;;10.46;100.00
45621;BME280;31345;51.522;10.702;2022-08-06T04:31:19;100018.41;;;10.14;100.00
45621;BME280;31345;51.522;10.702;2022-08-06T04:33:48;100019.19;;;10.34;100.00
45621;BME280;31345;51.522;10.702;2022-08-06T04:36:18;100026.41;;;10.47;100.00
45621;BME280;31345;51.522;10.702;2022-08-06T04:38:47;100032.97;;;10.38;100.00
45621;BME280;31345;51.522;10.702;2022-08-06T04:41:15;100035.81;;;10.16;100.00
45621;BME280;31345;51.522;10.702;2022-08-06T04:43:43;100038.88;;;10.42;100.00
45621;BME280;31345;51.522;10.702;2022-08-06T04:46:12;100045.97;;;10.39;100.00
45621;BME280;31345;51.522;10.702;2022-08-06T04:48:41;100039.88;;;10.74;100.00
45621;BME280;31345;51.522;10.702;2022-08-06T04:51:12;100052.56;;;10.47;100.00
45621;BME280;31345;51.522;10.702;2022-08-06T04:53:40;100055.47;;;10.23;100.00
45621;BME280;31345;51.522;10.702;2022-08-06T04:56:09;100055.94;;;10.66;100.00
45621;BME280;31345;51.522;10.702;2022-08-06T04:58:37;100061.88;;;10.35;100.00
45621;BME280;31345;51.522;10.702;2022-08-06T05:01:04;100058.47;;;10.68;100.00
45621;BME280;31345;51.522;10.702;2022-08-06T05:03:32;100070.41;;;10.74;100.00
45621;BME280;31345;51.522;10.702;2022-08-06T05:06:05;100065.25;;;10.90;100.00
45621;BME280;31345;51.522;10.702;2022-08-06T05:08:35;100070.56;;;10.71;100.00
45621;BME280;31345;51.522;10.702;2022-08-06T05:11:07;100068.66;;;10.74;100.00
45621;BME280;31345;51.522;10.702;2022-08-06T05:13:39;100073.09;;;10.72;100.00
45621;BME280;31345;51.522;10.702;2022-08-06T05:16:09;100076.97;;;11.16;100.00
45621;BME280;31345;51.522;10.702;2022-08-06T05:18:43;100072.31;;;11.72;100.00
45621;BME280;31345;51.522;10.702;2022-08-06T05:21:17;100073.00;;;11.75;100.00
45621;BME280;31345;51.522;10.702;2022-08-06T05:23:50;100077.81;;;12.15;100.00
45621;BME280;31345;51.522;10.702;2022-08-06T05:26:19;100082.38;;;12.12;99.04
45621;BME280;31345;51.522;10.702;2022-08-06T05:28:47;100082.63;;;12.07;100.00
45621;BME280;31345;51.522;10.702;2022-08-06T05:31:14;100079.53;;;12.47;98.55
45621;BME280;31345;51.522;10.702;2022-08-06T05:33:42;100079.78;;;12.42;98.40
45621;BME280;31345;51.522;10.702;2022-08-06T05:36:12;100084.91;;;12.60;97.23
45621;BME280;31345;51.522;10.702;2022-08-06T05:42:01;100092.75;;;13.05;97.74
45621;BME280;31345;51.522;10.702;2022-08-06T05:44:28;100093.25;;;13.41;94.96
45621;BME280;31345;51.522;10.702;2022-08-06T05:47:01;100085.94;;;13.61;92.58
45621;BME280;31345;51.522;10.702;2022-08-06T05:49:38;100088.91;;;13.84;90.86
45621;BME280;31345;51.522;10.702;2022-08-06T05:52:12;100090.03;;;14.07;90.37
45621;BME280;31345;51.522;10.702;2022-08-06T05:54:44;100092.47;;;14.38;88.58
45621;BME280;31345;51.522;10.702;2022-08-06T05:57:19;100080.34;;;14.89;82.79
45621;BME280;31345;51.522;10.702;2022-08-06T05:59:50;100083.00;;;15.02;84.44
45621;BME280;31345;51.522;10.702;2022-08-06T06:02:20;100085.94;;;15.23;84.25
45621;BME280;31345;51.522;10.702;2022-08-06T06:04:49;100091.84;;;15.14;85.13
45621;BME280;31345;51.522;10.702;2022-08-06T06:07:19;100090.53;;;15.46;81.92
45621;BME280;31345;51.522;10.702;2022-08-06T06:09:48;100093.41;;;15.16;85.51
45621;BME280;31345;51.522;10.702;2022-08-06T06:12:16;100093.06;;;15.47;84.13
45621;BME280;31345;51.522;10.702;2022-08-06T06:14:45;100090.09;;;15.65;81.08
45621;BME280;31345;51.522;10.702;2022-08-06T06:17:29;100087.19;;;15.81;81.57
45621;BME280;31345;51.522;10.702;2022-08-06T06:20:08;100093.00;;;15.86;80.72
45621;BME280;31345;51.522;10.702;2022-08-06T06:22:43;100093.88;;;15.98;82.17
45621;BME280;31345;51.522;10.702;2022-08-06T06:25:16;100087.94;;;16.07;79.60
45621;BME280;31345;51.522;10.702;2022-08-06T06:27:51;100104.06;;;16.16;83.79
45621;BME280;31345;51.522;10.702;2022-08-06T06:30:23;100090.25;;;16.12;80.86
45621;BME280;31345;51.522;10.702;2022-08-06T06:32:57;100089.34;;;16.25;81.16
45621;BME280;31345;51.522;10.702;2022-08-06T06:35:32;100092.03;;;16.12;79.63
45621;BME280;31345;51.522;10.702;2022-08-06T06:38:11;100100.25;;;16.20;79.91
45621;BME280;31345;51.522;10.702;2022-08-06T06:40:50;100104.69;;;16.19;78.98
45621;BME280;31345;51.522;10.702;2022-08-06T06:43:22;100106.22;;;16.35;80.31
45621;BME280;31345;51.522;10.702;2022-08-06T06:45:57;100109.56;;;16.37;81.49
45621;BME280;31345;51.522;10.702;2022-08-06T06:48:32;100101.75;;;16.36;78.83
45621;BME280;31345;51.522;10.702;2022-08-06T06:51:03;100106.06;;;16.61;79.91
45621;BME280;31345;51.522;10.702;2022-08-06T06:53:37;100115.56;;;16.75;76.67
45621;BME280;31345;51.522;10.702;2022-08-06T06:56:08;100108.38;;;16.66;76.30
45621;BME280;31345;51.522;10.702;2022-08-06T06:58:39;100109.50;;;16.97;78.73
45621;BME280;31345;51.522;10.702;2022-08-06T07:01:09;100105.69;;;17.13;77.71
45621;BME280;31345;51.522;10.702;2022-08-06T07:03:40;100108.69;;;16.97;73.34
45621;BME280;31345;51.522;10.702;2022-08-06T07:06:10;100110.50;;;17.31;78.16
45621;BME280;31345;51.522;10.702;2022-08-06T07:08:47;100110.88;;;17.26;75.10
45621;BME280;31345;51.522;10.702;2022-08-06T07:11:19;100102.81;;;17.16;75.55
45621;BME280;31345;51.522;10.702;2022-08-06T07:13:49;100104.38;;;17.19;73.34
45621;BME280;31345;51.522;10.702;2022-08-06T07:16:19;100107.75;;;17.32;73.79
45621;BME280;31345;51.522;10.702;2022-08-06T07:18:49;100112.59;;;17.50;73.49
45621;BME280;31345;51.522;10.702;2022-08-06T07:21:20;100114.75;;;17.56;72.92
45621;BME280;31345;51.522;10.702;2022-08-06T07:23:50;100108.72;;;17.77;71.69
45621;BME280;31345;51.522;10.702;2022-08-06T07:26:21;100115.66;;;17.90;72.58
45621;BME280;31345;51.522;10.702;2022-08-06T07:28:51;100123.78;;;18.09;72.81
45621;BME280;31345;51.522;10.702;2022-08-06T07:31:23;100108.63;;;18.11;68.58
45621;BME280;31345;51.522;10.702;2022-08-06T07:33:52;100117.91;;;18.06;73.59
45621;BME280;31345;51.522;10.702;2022-08-06T07:36:22;100120.19;;;17.99;72.15
45621;BME280;31345;51.522;10.702;2022-08-06T07:38:55;100116.84;;;18.08;71.24
45621;BME280;31345;51.522;10.702;2022-08-06T07:41:26;100119.13;;;18.34;70.49
45621;BME280;31345;51.522;10.702;2022-08-06T07:43:58;100114.50;;;18.48;70.02
45621;BME280;31345;51.522;10.702;2022-08-06T07:46:28;100115.69;;;18.55;69.20
45621;BME280;31345;51.522;10.702;2022-08-06T07:49:01;100111.97;;;18.58;69.70
45621;BME280;31345;51.522;10.702;2022-08-06T07:51:32;100114.78;;;19.09;66.72
45621;BME280;31345;51.522;10.702;2022-08-06T07:54:03;100121.00;;;19.19;68.48
45621;BME280;31345;51.522;10.702;2022-08-06T07:56:32;100116.78;;;18.52;67.95
45621;BME280;31345;51.522;10.702;2022-08-06T07:59:03;100126.38;;;17.88;68.08
45621;BME280;31345;51.522;10.702;2022-08-06T08:01:32;100130.84;;;17.53;70.44
45621;BME280;31345;51.522;10.702;2022-08-06T08:04:00;100129.28;;;17.51;69.41
45621;BME280;31345;51.522;10.702;2022-08-06T08:06:50;100135.59;;;17.14;72.76
45621;BME280;31345;51.522;10.702;2022-08-06T08:09:22;100137.41;;;17.24;68.24
45621;BME280;31345;51.522;10.702;2022-08-06T08:11:51;100143.97;;;17.07;73.64
45621;BME280;31345;51.522;10.702;2022-08-06T08:14:20;100133.34;;;17.32;72.44
45621;BME280;31345;51.522;10.702;2022-08-06T08:16:49;100132.97;;;17.94;73.58
45621;BME280;31345;51.522;10.702;2022-08-06T08:19:22;100130.13;;;18.51;72.95
45621;BME280;31345;51.522;10.702;2022-08-06T08:21:50;100135.56;;;18.82;70.54
45621;BME280;31345;51.522;10.702;2022-08-06T08:24:20;100124.38;;;19.00;67.84
45621;BME280;31345;51.522;10.702;2022-08-06T08:26:47;100129.94;;;19.28;67.00
45621;BME280;31345;51.522;10.702;2022-08-06T08:29:15;100120.22;;;19.60;63.07
45621;BME280;31345;51.522;10.702;2022-08-06T08:31:42;100122.66;;;19.20;66.43
45621;BME280;31345;51.522;10.702;2022-08-06T08:34:10;100130.13;;;19.26;66.53
45621;BME280;31345;51.522;10.702;2022-08-06T08:36:39;100129.94;;;19.28;65.35
45621;BME280;31345;51.522;10.702;2022-08-06T08:39:07;100131.88;;;18.41;66.59
45621;BME280;31345;51.522;10.702;2022-08-06T08:41:38;100137.13;;;18.19;67.42
45621;BME280;31345;51.522;10.702;2022-08-06T08:44:07;100138.81;;;18.09;68.68
45621;BME280;31345;51.522;10.702;2022-08-06T08:46:38;100142.00;;;17.91;69.33
45621;BME280;31345;51.522;10.702;2022-08-06T08:49:08;100143.69;;;17.69;69.13
45621;BME280;31345;51.522;10.702;2022-08-06T08:51:41;100143.81;;;17.79;69.24
45621;BME280;31345;51.522;10.702;2022-08-06T08:54:13;100143.31;;;17.85;66.97
45621;BME280;31345;51.522;10.702;2022-08-06T08:56:44;100143.19;;;17.98;67.69
45621;BME280;31345;51.522;10.702;2022-08-06T08:59:12;100144.53;;;18.25;69.94
45621;BME280;31345;51.522;10.702;2022-08-06T09:01:40;100136.66;;;18.58;69.21
45621;BME280;31345;51.522;10.702;2022-08-06T09:04:08;100144.19;;;18.30;66.36
45621;BME280;31345;51.522;10.702;2022-08-06T09:06:37;100133.28;;;18.12;66.39
45621;BME280;31345;51.522;10.702;2022-08-06T09:09:05;100148.81;;;18.05;67.70
45621;BME280;31345;51.522;10.702;2022-08-06T09:11:37;100133.03;;;18.81;68.08
45621;BME280;31345;51.522;10.702;2022-08-06T09:14:08;100120.53;;;19.45;64.87
45621;BME280;31345;51.522;10.702;2022-08-06T09:16:36;100133.25;;;19.41;63.41
45621;BME280;31345;51.522;10.702;2022-08-06T09:19:05;100119.19;;;20.02;58.25
45621;BME280;31345;51.522;10.702;2022-08-06T09:21:33;100130.09;;;19.99;58.86
45621;BME280;31345;51.522;10.702;2022-08-06T09:24:00;100127.34;;;19.38;58.82
45621;BME280;31345;51.522;10.702;2022-08-06T09:26:28;100128.88;;;19.31;57.76
45621;BME280;31345;51.522;10.702;2022-08-06T09:28:59;100132.19;;;19.01;59.95
45621;BME280;31345;51.522;10.702;2022-08-06T09:31:35;100134.91;;;18.90;60.78
45621;BME280;31345;51.522;10.702;2022-08-06T09:34:04;100133.09;;;18.69;62.63
45621;BME280;31345;51.522;10.702;2022-08-06T09:36:40;100133.03;;;18.81;62.59
45621;BME280;31345;51.522;10.702;2022-08-06T09:39:08;100133.03;;;18.59;61.88
45621;BME280;31345;51.522;10.702;2022-08-06T09:41:45;100135.63;;;18.92;65.11
45621;BME280;31345;51.522;10.702;2022-08-06T09:44:14;100135.03;;;18.67;63.06
45621;BME280;31345;51.522;10.702;2022-08-06T09:46:45;100137.22;;;18.62;63.34
45621;BME280;31345;51.522;10.702;2022-08-06T09:49:14;100140.72;;;18.62;65.85
45621;BME280;31345;51.522;10.702;2022-08-06T09:51:42;100129.94;;;18.97;60.75
45621;BME280;31345;51.522;10.702;2022-08-06T09:54:11;100140.41;;;18.77;60.82
45621;BME280;31345;51.522;10.702;2022-08-06T09:56:42;100133.34;;;18.87;64.27
45621;BME280;31345;51.522;10.702;2022-08-06T09:59:11;100134.47;;;19.37;66.47
45621;BME280;31345;51.522;10.702;2022-08-06T10:01:40;100134.81;;;19.23;62.83
45621;BME280;31345;51.522;10.702;2022-08-06T10:04:14;100128.53;;;19.55;61.14
45621;BME280;31345;51.522;10.702;2022-08-06T10:06:50;100124.81;;;19.26;61.41
45621;BME280;31345;51.522;10.702;2022-08-06T10:09:18;100130.81;;;19.07;61.76
45621;BME280;31345;51.522;10.702;2022-08-06T10:11:46;100131.69;;;19.08;61.77
45621;BME280;31345;51.522;10.702;2022-08-06T10:14:24;100133.41;;;18.97;64.18
45621;BME280;31345;51.522;10.702;2022-08-06T10:17:08;100124.41;;;18.78;62.04
45621;BME280;31345;51.522;10.702;2022-08-06T10:19:40;100121.06;;;19.29;59.87
45621;BME280;31345;51.522;10.702;2022-08-06T10:22:11;100127.97;;;19.83;61.16
45621;BME280;31345;51.522;10.702;2022-08-06T10:24:40;100130.31;;;19.76;60.93
45621;BME280;31345;51.522;10.702;2022-08-06T10:27:10;100119.50;;;20.09;59.67
45621;BME280;31345;51.522;10.702;2022-08-06T10:29:41;100117.69;;;20.19;60.12
45621;BME280;31345;51.522;10.702;2022-08-06T10:32:14;100119.63;;;20.07;56.44
45621;BME280;31345;51.522;10.702;2022-08-06T10:34:44;100118.69;;;20.67;55.03
45621;BME280;31345;51.522;10.702;2022-08-06T10:37:17;100120.19;;;20.40;57.62
45621;BME280;31345;51.522;10.702;2022-08-06T10:39:47;100121.88;;;20.31;57.63
45621;BME280;31345;51.522;10.702;2022-08-06T10:42:17;100125.81;;;20.37;60.27
45621;BME280;31345;51.522;10.702;2022-08-06T10:44:45;100120.50;;;20.37;55.26
45621;BME280;31345;51.522;10.702;2022-08-06T10:47:18;100117.84;;;20.67;56.08
45621;BME280;31345;51.522;10.702;2022-08-06T10:49:48;100110.13;;;20.93;55.90
45621;BME280;31345;51.522;10.702;2022-08-06T10:52:17;100112.94;;;21.30;57.45
45621;BME280;31345;51.522;10.702;2022-08-06T10:54:45;100118.25;;;21.30;55.72
45621;BME280;31345;51.522;10.702;2022-08-06T10:57:14;100110.13;;;21.69;54.31
45621;BME280;31345;51.522;10.702;2022-08-06T10:59:42;100116.66;;;22.03;53.72
45621;BME280;31345;51.522;10.702;2022-08-06T11:02:21;100113.22;;;22.29;55.75
45621;BME280;31345;51.522;10.702;2022-08-06T11:04:56;100112.63;;;22.17;52.57
45621;BME280;31345;51.522;10.702;2022-08-06T11:07:50;100111.69;;;22.63;56.18
45621;BME280;31345;51.522;10.702;2022-08-06T11:10:43;100107.22;;;22.09;49.80
45621;BME280;31345;51.522;10.702;2022-08-06T11:13:21;100109.63;;;21.46;52.76
45621;BME280;31345;51.522;10.702;2022-08-06T11:15:52;100111.22;;;21.39;51.59
45621;BME280;31345;51.522;10.702;2022-08-06T11:18:21;100111.66;;;21.72;50.43
45621;BME280;31345;51.522;10.702;2022-08-06T11:20:51;100108.91;;;21.64;52.01
45621;BME280;31345;51.522;10.702;2022-08-06T11:23:26;100107.97;;;22.19;54.36
45621;BME280;31345;51.522;10.702;2022-08-06T11:25:56;100112.03;;;22.42;53.39
45621;BME280;31345;51.522;10.702;2022-08-06T11:28:59;100104.78;;;22.16;51.28
45621;BME280;31345;51.522;10.702;2022-08-06T11:31:33;100103.16;;;22.77;53.44
45621;BME280;31345;51.522;10.702;2022-08-06T11:34:03;100099.38;;;21.89;49.92
45621;BME280;31345;51.522;10.702;2022-08-06T11:36:48;100097.75;;;22.43;51.59
45621;BME280;31345;51.522;10.702;2022-08-06T11:39:18;100091.25;;;22.09;50.07
45621;BME280;31345;51.522;10.702;2022-08-06T11:41:53;100099.53;;;21.59;49.97
45621;BME280;31345;51.522;10.702;2022-08-06T11:44:22;100100.28;;;21.04;53.02
45621;BME280;31345;51.522;10.702;2022-08-06T11:47:07;100092.78;;;20.89;52.32
45621;BME280;31345;51.522;10.702;2022-08-06T11:49:40;100093.41;;;21.11;53.45
45621;BME280;31345;51.522;10.702;2022-08-06T11:52:40;100091.63;;;21.02;48.92
45621;BME280;31345;51.522;10.702;2022-08-06T11:55:13;100094.25;;;21.12;52.08
45621;BME280;31345;51.522;10.702;2022-08-06T11:57:41;100090.53;;;20.94;50.36
45621;BME280;31345;51.522;10.702;2022-08-06T12:00:12;100093.38;;;20.63;53.53
45621;BME280;31345;51.522;10.702;2022-08-06T12:02:45;100087.75;;;20.86;53.08
45621;BME280;31345;51.522;10.702;2022-08-06T12:05:40;100096.38;;;20.98;50.38
45621;BME280;31345;51.522;10.702;2022-08-06T12:08:18;100097.84;;;20.53;51.98
45621;BME280;31345;51.522;10.702;2022-08-06T12:11:24;100093.50;;;20.71;56.39
45621;BME280;31345;51.522;10.702;2022-08-06T12:13:55;100097.78;;;20.92;54.61
45621;BME280;31345;51.522;10.702;2022-08-06T12:16:31;100094.72;;;20.87;55.25
45621;BME280;31345;51.522;10.702;2022-08-06T12:19:00;100097.34;;;21.07;53.98
45621;BME280;31345;51.522;10.702;2022-08-06T12:21:29;100086.03;;;21.71;51.31
45621;BME280;31345;51.522;10.702;2022-08-06T12:23:58;100084.44;;;21.96;48.97
45621;BME280;31345;51.522;10.702;2022-08-06T12:26:30;100078.28;;;22.50;49.05
45621;BME280;31345;51.522;10.702;2022-08-06T12:29:02;100086.03;;;23.15;50.23
45621;BME280;31345;51.522;10.702;2022-08-06T12:31:33;100081.94;;;22.68;45.38
45621;BME280;31345;51.522;10.702;2022-08-06T12:34:02;100088.72;;;22.25;48.80
45621;BME280;31345;51.522;10.702;2022-08-06T12:36:33;100079.13;;;21.96;46.13
45621;BME280;31345;51.522;10.702;2022-08-06T12:39:04;100086.19;;;20.93;48.85
45621;BME280;31345;51.522;10.702;2022-08-06T12:41:35;100080.63;;;20.87;48.71
45621;BME280;31345;51.522;10.702;2022-08-06T12:44:03;100076.44;;;20.74;50.07
45621;BME280;31345;51.522;10.702;2022-08-06T12:46:30;100072.81;;;20.55;49.46
45621;BME280;31345;51.522;10.702;2022-08-06T12:48:59;100073.97;;;20.63;52.84
45621;BME280;31345;51.522;10.702;2022-08-06T12:51:30;100075.59;;;20.74;52.00
45621;BME280;31345;51.522;10.702;2022-08-06T12:54:01;100075.13;;;20.88;52.30
45621;BME280;31345;51.522;10.702;2022-08-06T12:56:33;100071.41;;;20.71;49.88
45621;BME280;31345;51.522;10.702;2022-08-06T12:59:05;100071.41;;;20.81;48.67
45621;BME280;31345;51.522;10.702;2022-08-06T13:01:35;100069.59;;;20.62;50.01
45621;BME280;31345;51.522;10.702;2022-08-06T13:04:06;100070.53;;;20.90;48.64
45621;BME280;31345;51.522;10.702;2022-08-06T13:06:37;100060.72;;;21.67;46.55